createdAt,value
2022-09-10T00:00:42.604Z,62.98
2022-09-10T00:03:13.103Z,63.37
2022-09-10T00:05:44.977Z,63.12
2022-09-10T00:08:12.068Z,62.66
2022-09-10T00:10:47.808Z,63.22
2022-09-10T00:13:16.865Z,62.72
2022-09-10T00:15:47.100Z,62.89
2022-09-10T00:18:15.140Z,62.58
2022-09-10T00:20:56.031Z,63.28
2022-09-10T00:23:25.241Z,62.99
2022-09-10T00:25:53.280Z,62.79
2022-09-10T00:28:21.407Z,62.80
2022-09-10T00:30:48.934Z,63.49
2022-09-10T00:33:17.201Z,62.57
2022-09-10T00:35:44.803Z,62.63
2022-09-10T00:38:13.669Z,62.79
2022-09-10T00:40:41.188Z,62.83
2022-09-10T00:43:19.018Z,63.23
2022-09-10T00:45:49.467Z,63.12
2022-09-10T00:48:29.718Z,63.55
2022-09-10T00:51:01.779Z,62.76
2022-09-10T00:53:29.221Z,62.81
2022-09-10T00:55:59.133Z,62.99
2022-09-10T00:58:27.909Z,62.68
2022-09-10T01:00:59.720Z,62.81
2022-09-10T01:03:28.084Z,62.62
2022-09-10T01:05:55.029Z,62.63
2022-09-10T01:08:21.603Z,62.50
2022-09-10T01:11:02.887Z,62.82
2022-09-10T01:13:44.473Z,62.68
2022-09-10T01:16:38.226Z,62.80
2022-09-10T01:19:23.028Z,62.33
2022-09-10T01:22:11.346Z,62.74
2022-09-10T01:24:57.751Z,62.66
2022-09-10T01:27:44.910Z,62.41
2022-09-10T01:30:16.015Z,62.51
2022-09-10T01:32:55.305Z,63.07
2022-09-10T01:35:29.561Z,62.51
2022-09-10T01:38:01.385Z,62.87
2022-09-10T01:40:28.303Z,62.65
2022-09-10T01:43:07.856Z,62.82
2022-09-10T01:46:04.928Z,63.39
2022-09-10T01:48:40.153Z,63.22
2022-09-10T01:51:28.393Z,63.34
2022-09-10T01:54:24.868Z,64.06
2022-09-10T01:57:05.565Z,63.90
2022-09-10T02:00:12.238Z,63.92
2022-09-10T02:03:03.798Z,64.06
2022-09-10T02:05:36.434Z,64.42
2022-09-10T02:08:11.845Z,64.45
2022-09-10T02:10:59.788Z,64.33
2022-09-10T02:13:30.932Z,64.13
2022-09-10T02:16:29.227Z,63.95
2022-09-10T02:18:59.595Z,63.94
2022-09-10T02:21:26.476Z,63.93
2022-09-10T02:23:59.358Z,63.95
2022-09-10T02:26:26.030Z,63.96
2022-09-10T02:28:53.558Z,63.68
2022-09-10T02:31:21.601Z,63.82
2022-09-10T02:33:48.959Z,63.35
2022-09-10T02:36:15.430Z,63.11
2022-09-10T02:38:41.976Z,62.78
2022-09-10T02:41:08.676Z,62.60
2022-09-10T02:43:35.528Z,62.33
2022-09-10T02:46:02.122Z,62.47
2022-09-10T02:48:28.699Z,62.26
2022-09-10T02:50:56.967Z,62.37
2022-09-10T02:53:26.361Z,62.05
2022-09-10T02:55:56.170Z,61.86
2022-09-10T02:58:22.675Z,62.03
2022-09-10T03:00:49.485Z,62.03
2022-09-10T03:03:18.336Z,62.28
2022-09-10T03:05:44.816Z,62.10
2022-09-10T03:08:11.356Z,61.81
2022-09-10T03:10:42.618Z,61.99
2022-09-10T03:13:09.127Z,61.91
2022-09-10T03:15:35.675Z,61.79
2022-09-10T03:18:02.229Z,61.84
2022-09-10T03:20:28.754Z,62.03
2022-09-10T03:22:55.196Z,62.03
2022-09-10T03:25:21.792Z,61.93
2022-09-10T03:27:48.363Z,61.99
2022-09-10T03:30:15.846Z,62.12
2022-09-10T03:32:42.386Z,62.26
2022-09-10T03:35:09.217Z,62.37
2022-09-10T03:37:37.821Z,62.39
2022-09-10T03:40:04.771Z,62.53
2022-09-10T03:42:31.404Z,62.38
2022-09-10T03:44:58.188Z,62.59
2022-09-10T03:47:24.930Z,62.75
2022-09-10T03:49:52.711Z,62.89
2022-09-10T03:52:19.719Z,62.54
2022-09-10T03:54:46.256Z,62.71
2022-09-10T03:57:12.979Z,62.74
2022-09-10T03:59:40.372Z,63.08
2022-09-10T04:02:09.563Z,63.03
2022-09-10T04:04:36.142Z,63.17
2022-09-10T04:07:03.862Z,63.14
2022-09-10T04:09:31.962Z,63.18
2022-09-10T04:12:00.153Z,63.25
2022-09-10T04:14:29.148Z,63.26
2022-09-10T04:16:58.922Z,63.40
2022-09-10T04:19:26.780Z,63.62
2022-09-10T04:21:53.528Z,63.37
2022-09-10T04:24:20.119Z,63.30
2022-09-10T04:26:47.754Z,63.45
2022-09-10T04:29:16.781Z,63.25
2022-09-10T04:31:44.065Z,63.50
2022-09-10T04:34:13.153Z,63.33
2022-09-10T04:36:39.978Z,63.49
2022-09-10T04:39:08.444Z,63.31
2022-09-10T04:41:36.165Z,63.20
2022-09-10T04:44:04.491Z,62.90
2022-09-10T04:46:30.992Z,62.84
2022-09-10T04:48:58.847Z,62.94
2022-09-10T04:51:26.575Z,62.96
2022-09-10T05:01:35.652Z,62.89
2022-09-10T05:04:03.852Z,63.26
2022-09-10T05:06:31.164Z,63.06
2022-09-10T05:08:57.756Z,63.00
2022-09-10T05:11:25.868Z,63.00
2022-09-10T05:13:53.323Z,62.78
2022-09-10T05:16:22.386Z,62.75
2022-09-10T05:18:48.883Z,62.79
2022-09-10T05:21:17.031Z,62.86
2022-09-10T05:23:44.214Z,62.84
2022-09-10T05:26:10.872Z,62.72
2022-09-10T05:28:37.613Z,62.91
2022-09-10T05:31:06.121Z,62.90
2022-09-10T05:33:33.880Z,63.04
2022-09-10T05:36:00.477Z,63.11
2022-09-10T05:38:27.079Z,63.23
2022-09-10T05:40:53.743Z,63.32
2022-09-10T05:43:21.112Z,63.28
2022-09-10T05:45:48.447Z,63.59
2022-09-10T05:48:15.030Z,63.29
2022-09-10T05:50:41.583Z,63.35
2022-09-10T05:53:08.520Z,63.47
2022-09-10T05:55:35.040Z,63.49
2022-09-10T05:58:01.933Z,63.23
2022-09-10T06:00:29.246Z,63.11
2022-09-10T06:02:59.352Z,62.87
2022-09-10T06:05:30.789Z,62.75
2022-09-10T06:07:57.505Z,62.67
2022-09-10T06:10:24.081Z,62.84
2022-09-10T06:12:51.965Z,63.00
2022-09-10T06:15:20.395Z,63.17
2022-09-10T06:17:48.242Z,63.62
2022-09-10T06:20:14.930Z,63.76
2022-09-10T06:22:43.612Z,63.90
2022-09-10T06:25:10.163Z,64.03
2022-09-10T06:27:37.610Z,63.99
2022-09-10T06:30:05.881Z,64.22
2022-09-10T06:32:34.013Z,64.08
2022-09-10T06:35:02.391Z,63.95
2022-09-10T06:37:29.113Z,63.50
2022-09-10T06:39:55.808Z,63.39
2022-09-10T06:42:22.928Z,63.13
2022-09-10T06:45:08.266Z,62.69
2022-09-10T06:50:53.356Z,63.16
2022-09-10T06:53:20.999Z,63.38
2022-09-10T06:55:52.569Z,63.82
2022-09-10T06:58:21.188Z,63.49
2022-09-10T07:00:48.280Z,63.62
2022-09-10T07:03:21.468Z,64.30
2022-09-10T07:05:49.085Z,63.93
2022-09-10T07:08:17.929Z,64.24
2022-09-10T07:10:47.914Z,64.25
2022-09-10T07:13:14.653Z,64.64
2022-09-10T07:15:46.375Z,65.59
2022-09-10T07:18:14.239Z,65.45
2022-09-10T07:20:42.961Z,65.85
2022-09-10T07:23:14.356Z,67.04
2022-09-10T07:25:42.287Z,67.18
2022-09-10T07:28:17.996Z,67.66
2022-09-10T07:30:46.746Z,67.53
2022-09-10T07:33:14.790Z,68.44
2022-09-10T07:35:43.351Z,68.15
2022-09-10T07:38:13.236Z,68.66
2022-09-10T07:40:41.154Z,68.32
2022-09-10T07:43:07.614Z,68.32
2022-09-10T07:45:34.414Z,68.37
2022-09-10T07:48:04.020Z,68.05
2022-09-10T07:50:34.901Z,68.17
2022-09-10T07:53:01.551Z,68.09
2022-09-10T07:55:28.797Z,67.63
2022-09-10T07:57:58.369Z,67.72
2022-09-10T08:00:30.915Z,67.50
2022-09-10T08:03:01.272Z,67.97
2022-09-10T08:05:27.868Z,67.99
2022-09-10T08:07:55.066Z,67.96
2022-09-10T08:10:24.510Z,67.78
2022-09-10T08:12:52.225Z,68.06
2022-09-10T08:15:18.803Z,67.75
2022-09-10T08:17:46.000Z,67.45
2022-09-10T08:20:12.542Z,67.19
2022-09-10T08:22:42.846Z,66.91
2022-09-10T08:25:09.592Z,66.64
2022-09-10T08:27:37.184Z,66.53
2022-09-10T08:30:06.202Z,66.77
2022-09-10T08:32:34.764Z,66.73
2022-09-10T08:35:01.546Z,66.45
2022-09-10T08:37:28.096Z,66.61
2022-09-10T08:39:54.686Z,66.24
2022-09-10T08:42:32.062Z,66.06
2022-09-10T08:45:25.749Z,66.01
2022-09-10T08:48:16.224Z,65.52
2022-09-10T08:50:46.119Z,66.39
2022-09-10T08:53:19.532Z,66.08
2022-09-10T08:55:48.830Z,66.73
2022-09-10T08:58:24.443Z,65.83
2022-09-10T09:00:56.284Z,65.80
2022-09-10T09:03:30.138Z,65.84
2022-09-10T09:06:02.580Z,65.87
2022-09-10T09:08:37.777Z,66.88
2022-09-10T09:11:26.436Z,66.07
2022-09-10T09:14:12.674Z,67.60
2022-09-10T09:17:03.388Z,66.28
2022-09-10T09:19:42.580Z,67.40
2022-09-10T09:22:38.153Z,66.57
2022-09-10T09:25:24.080Z,65.88
2022-09-10T09:27:54.475Z,67.21
2022-09-10T09:30:41.689Z,64.01
2022-09-10T09:33:18.866Z,64.96
2022-09-10T09:35:55.198Z,63.54
2022-09-10T09:38:28.838Z,63.09
2022-09-10T09:41:06.511Z,62.17
2022-09-10T09:43:51.467Z,63.98
2022-09-10T09:46:21.477Z,62.96
2022-09-10T09:48:58.247Z,61.57
2022-09-10T09:51:27.548Z,62.79
2022-09-10T09:54:25.741Z,62.35
2022-09-10T09:56:48.444Z,62.83
2022-09-10T09:59:31.058Z,61.78
2022-09-10T10:02:27.283Z,62.69
2022-09-10T10:05:25.252Z,62.38
2022-09-10T10:07:51.765Z,63.51
2022-09-10T10:10:25.345Z,61.82
2022-09-10T10:12:53.970Z,63.15
2022-09-10T10:15:36.353Z,63.46
2022-09-10T10:18:21.899Z,62.75
2022-09-10T10:20:50.309Z,62.58
2022-09-10T10:23:37.172Z,63.59
2022-09-10T10:26:21.892Z,64.45
2022-09-10T10:28:51.602Z,64.11
2022-09-10T10:31:19.420Z,64.63
2022-09-10T10:34:14.120Z,65.15
2022-09-10T10:37:07.593Z,63.79
2022-09-10T10:40:02.150Z,64.31
2022-09-10T10:42:50.015Z,65.05
2022-09-10T10:45:38.428Z,64.70
2022-09-10T10:48:35.323Z,65.02
2022-09-10T10:51:28.665Z,66.21
2022-09-10T10:54:10.458Z,66.31
2022-09-10T10:56:41.585Z,67.10
2022-09-10T10:59:40.102Z,69.17
2022-09-10T11:02:20.437Z,69.71
2022-09-10T11:04:51.350Z,70.32
2022-09-10T11:07:25.808Z,71.25
2022-09-10T11:10:21.648Z,73.03
2022-09-10T11:13:12.571Z,75.02
2022-09-10T11:15:50.344Z,75.71
2022-09-10T11:18:39.325Z,76.22
2022-09-10T11:21:17.958Z,76.80
2022-09-10T11:23:54.808Z,77.63
2022-09-10T11:26:30.668Z,78.48
2022-09-10T11:29:11.689Z,78.54
2022-09-10T11:31:44.746Z,77.79
2022-09-10T11:34:31.764Z,76.14
2022-09-10T11:37:19.142Z,74.11
2022-09-10T11:39:50.363Z,74.55
2022-09-10T11:42:27.597Z,71.87
2022-09-10T11:45:17.124Z,72.72
2022-09-10T11:47:52.045Z,72.38
2022-09-10T11:50:31.031Z,72.05
2022-09-10T11:53:00.850Z,71.80
2022-09-10T11:55:45.853Z,70.21
2022-09-10T11:58:25.236Z,65.64
2022-09-10T12:01:29.455Z,67.47
2022-09-10T12:04:12.409Z,68.37
2022-09-10T12:06:49.169Z,66.74
2022-09-10T12:09:34.506Z,62.19
2022-09-10T12:12:25.988Z,63.68
2022-09-10T12:14:52.596Z,65.07
2022-09-10T12:17:26.295Z,64.13
2022-09-10T12:19:58.712Z,60.87
2022-09-10T12:22:29.650Z,63.23
2022-09-10T12:25:22.424Z,62.27
2022-09-10T12:27:51.668Z,64.45
2022-09-10T12:30:51.182Z,62.02
2022-09-10T12:33:17.829Z,64.13
2022-09-10T12:35:49.273Z,61.62
2022-09-10T12:38:46.018Z,60.53
2022-09-10T12:41:21.264Z,60.44
2022-09-10T12:43:47.712Z,60.63
2022-09-10T12:46:14.178Z,59.50
2022-09-10T12:48:48.767Z,58.62
2022-09-10T12:51:18.368Z,58.47
2022-09-10T12:53:59.888Z,56.90
2022-09-10T12:56:39.898Z,57.19
2022-09-10T12:59:35.354Z,58.24
2022-09-10T13:02:02.607Z,59.19
2022-09-10T13:04:34.343Z,58.63
2022-09-10T13:07:04.979Z,57.52
2022-09-10T13:09:35.799Z,59.08
2022-09-10T13:12:16.320Z,57.09
2022-09-10T13:14:48.982Z,57.93
2022-09-10T13:17:48.470Z,55.17
2022-09-10T13:20:30.366Z,57.35
2022-09-10T13:23:08.844Z,54.41
2022-09-10T13:25:43.384Z,54.77
2022-09-10T13:28:31.232Z,55.35
2022-09-10T13:30:59.801Z,56.91
2022-09-10T13:33:30.616Z,55.96
2022-09-10T13:36:17.431Z,55.88
2022-09-10T13:39:16.006Z,53.47
2022-09-10T13:41:49.025Z,55.02
2022-09-10T13:44:35.327Z,55.05
2022-09-10T13:47:12.555Z,54.15
2022-09-10T13:50:00.476Z,52.37
2022-09-10T13:52:35.260Z,51.92
2022-09-10T13:55:05.249Z,52.11
2022-09-10T13:57:36.090Z,51.72
2022-09-10T14:00:19.709Z,49.94
2022-09-10T14:02:46.469Z,52.19
2022-09-10T14:05:40.714Z,50.46
2022-09-10T14:08:24.505Z,49.72
2022-09-10T14:11:04.279Z,50.24
2022-09-10T14:14:08.360Z,50.17
2022-09-10T14:16:42.748Z,50.77
2022-09-10T14:19:23.432Z,49.52
2022-09-10T14:21:51.158Z,52.76
2022-09-10T14:24:26.890Z,48.67
2022-09-10T14:27:18.156Z,49.27
2022-09-10T14:29:45.168Z,52.86
2022-09-10T14:32:29.724Z,51.79
2022-09-10T14:34:56.571Z,51.84
2022-09-10T14:37:31.711Z,50.75
2022-09-10T14:40:03.980Z,51.03
2022-09-10T14:42:35.256Z,50.89
2022-09-10T14:45:02.507Z,52.51
2022-09-10T14:47:32.104Z,52.55
2022-09-10T14:50:25.288Z,52.12
2022-09-10T14:52:51.879Z,52.28
2022-09-10T14:55:18.523Z,52.25
2022-09-10T14:57:45.095Z,51.56
2022-09-10T15:00:15.328Z,50.76
2022-09-10T15:02:42.033Z,50.91
2022-09-10T15:05:15.853Z,48.02
2022-09-10T15:07:42.403Z,49.75
2022-09-10T15:10:09.808Z,49.89
2022-09-10T15:12:39.270Z,49.14
2022-09-10T15:15:06.279Z,47.97
2022-09-10T15:17:34.402Z,47.13
2022-09-10T15:20:01.068Z,47.62
2022-09-10T15:22:31.180Z,45.58
2022-09-10T15:25:09.479Z,46.80
2022-09-10T15:27:36.982Z,46.73
2022-09-10T15:30:03.919Z,47.21
2022-09-10T15:32:30.435Z,47.97
2022-09-10T15:34:56.932Z,47.61
2022-09-10T15:37:23.424Z,47.87
2022-09-10T15:39:50.033Z,47.04
2022-09-10T15:42:16.604Z,47.11
2022-09-10T15:44:43.064Z,47.09
2022-09-10T15:47:09.629Z,47.31
2022-09-10T15:49:36.166Z,47.38
2022-09-10T15:52:02.954Z,47.87
2022-09-10T15:54:29.422Z,48.12
2022-09-10T15:56:55.911Z,48.42
2022-09-10T15:59:23.261Z,49.02
2022-09-10T16:01:49.806Z,47.29
2022-09-10T16:04:16.382Z,46.98
2022-09-10T16:06:42.827Z,48.23
2022-09-10T16:09:11.813Z,49.38
2022-09-10T16:11:40.290Z,50.49
2022-09-10T16:14:08.788Z,50.99
2022-09-10T16:16:36.129Z,52.26
2022-09-10T16:19:04.252Z,53.26
2022-09-10T16:21:32.222Z,53.47
2022-09-10T16:23:59.724Z,54.58
2022-09-10T16:26:31.843Z,58.77
2022-09-10T16:29:00.343Z,57.81
2022-09-10T16:31:32.537Z,60.61
2022-09-10T16:34:01.016Z,59.86
2022-09-10T16:36:27.495Z,60.20
2022-09-10T16:38:55.776Z,60.71
2022-09-10T16:41:23.544Z,61.14
2022-09-10T16:43:50.382Z,61.25
2022-09-10T16:46:17.750Z,61.56
2022-09-10T16:48:44.869Z,61.87
2022-09-10T16:51:14.549Z,62.41
2022-09-10T16:53:45.212Z,62.74
2022-09-10T16:56:14.622Z,62.95
2022-09-10T16:58:45.501Z,62.94
2022-09-10T17:01:11.962Z,63.01
2022-09-10T17:03:46.137Z,63.54
2022-09-10T17:06:15.001Z,63.42
2022-09-10T17:08:41.891Z,63.28
2022-09-10T17:11:08.432Z,63.55
2022-09-10T17:13:35.717Z,63.78
2022-09-10T17:16:20.655Z,64.02
2022-09-10T17:18:48.094Z,63.46
2022-09-10T17:21:14.795Z,63.49
2022-09-10T17:23:41.529Z,63.59
2022-09-10T17:26:08.799Z,63.33
2022-09-10T17:28:36.338Z,63.32
2022-09-10T17:31:03.680Z,63.49
2022-09-10T17:33:30.576Z,63.22
2022-09-10T17:35:59.136Z,63.24
2022-09-10T17:38:27.179Z,63.08
2022-09-10T17:40:58.987Z,63.36
2022-09-10T17:43:27.532Z,63.32
2022-09-10T17:45:54.865Z,63.32
2022-09-10T17:48:26.306Z,63.27
2022-09-10T17:50:54.598Z,63.65
2022-09-10T17:53:21.296Z,63.72
2022-09-10T17:55:47.921Z,63.67
2022-09-10T17:58:14.510Z,63.91
2022-09-10T18:00:44.048Z,64.15
2022-09-10T18:03:12.042Z,64.07
2022-09-10T18:05:40.047Z,64.21
2022-09-10T18:08:06.887Z,64.18
2022-09-10T18:10:34.490Z,64.49
2022-09-10T18:13:01.395Z,64.56
2022-09-10T18:15:29.666Z,64.88
2022-09-10T18:17:57.323Z,64.82
2022-09-10T18:20:29.284Z,65.15
2022-09-10T18:22:58.500Z,65.13
2022-09-10T18:25:25.605Z,64.90
2022-09-10T18:27:52.901Z,64.98
2022-09-10T18:30:19.540Z,65.00
2022-09-10T18:32:47.179Z,65.01
2022-09-10T18:35:13.892Z,64.93
2022-09-10T18:37:40.450Z,64.76
2022-09-10T18:40:07.685Z,64.74
2022-09-10T18:42:34.339Z,64.90
2022-09-10T18:45:00.866Z,64.80
2022-09-10T18:47:44.155Z,64.87
2022-09-10T18:50:11.759Z,64.88
2022-09-10T18:52:38.271Z,65.10
2022-09-10T18:55:05.253Z,65.18
2022-09-10T18:57:31.714Z,65.21
2022-09-10T18:59:58.198Z,65.51
2022-09-10T19:02:24.742Z,65.37
2022-09-10T19:05:10.265Z,65.66
2022-09-10T19:07:37.781Z,65.60
2022-09-10T19:10:04.577Z,65.65
2022-09-10T19:12:31.004Z,65.79
2022-09-10T19:14:57.523Z,65.93
2022-09-10T19:17:24.056Z,65.84
2022-09-10T19:19:50.591Z,66.12
2022-09-10T19:22:17.053Z,66.30
2022-09-10T19:24:54.425Z,65.98
2022-09-10T19:27:22.720Z,66.25
2022-09-10T19:29:49.279Z,66.35
2022-09-10T19:32:15.762Z,66.49
2022-09-10T19:34:42.224Z,66.47
2022-09-10T19:37:08.781Z,66.50
2022-09-10T19:39:35.248Z,66.61
2022-09-10T19:42:01.828Z,66.49
2022-09-10T19:44:28.332Z,66.55
2022-09-10T19:46:54.893Z,66.58
2022-09-10T19:49:21.400Z,66.36
2022-09-10T19:51:47.949Z,66.65
2022-09-10T19:54:14.609Z,66.55
2022-09-10T19:56:42.146Z,66.80
2022-09-10T19:59:09.419Z,66.70
2022-09-10T20:01:39.361Z,66.46
2022-09-10T20:04:08.521Z,66.39
2022-09-10T20:06:35.860Z,66.33
2022-09-10T20:09:04.997Z,66.00
2022-09-10T20:11:33.841Z,66.27
2022-09-10T20:14:03.572Z,66.04
2022-09-10T20:16:30.636Z,66.21
2022-09-10T20:18:57.309Z,66.15
2022-09-10T20:21:26.589Z,66.32
2022-09-10T20:23:54.344Z,66.58
2022-09-10T20:26:26.177Z,66.74
2022-09-10T20:28:55.784Z,66.67
2022-09-10T20:31:24.576Z,66.95
2022-09-10T20:33:58.744Z,67.15
2022-09-10T20:36:26.802Z,66.90
2022-09-10T20:38:53.522Z,66.98
2022-09-10T20:41:20.724Z,66.82
2022-09-10T20:43:53.568Z,66.86
2022-09-10T20:46:22.325Z,66.89
2022-09-10T20:48:50.295Z,66.96
2022-09-10T20:51:18.684Z,67.13
2022-09-10T20:53:45.658Z,66.61
2022-09-10T20:56:18.076Z,66.53
2022-09-10T20:58:45.998Z,66.75
2022-09-10T21:01:18.051Z,66.77
2022-09-10T21:03:45.812Z,66.93
2022-09-10T21:06:14.621Z,67.07
2022-09-10T21:08:42.640Z,67.14
2022-09-10T21:11:10.650Z,67.06
2022-09-10T21:13:38.030Z,67.57
2022-09-10T21:16:16.243Z,67.50
2022-09-10T21:18:49.798Z,67.56
2022-09-10T21:21:21.569Z,67.70
2022-09-10T21:23:50.344Z,67.27
2022-09-10T21:26:18.883Z,67.04
2022-09-10T21:28:45.429Z,66.93
2022-09-10T21:31:12.654Z,66.94
2022-09-10T21:33:39.727Z,67.06
2022-09-10T21:36:10.751Z,67.16
2022-09-10T21:38:38.043Z,67.28
2022-09-10T21:41:06.309Z,67.19
2022-09-10T21:43:34.075Z,67.24
2022-09-10T21:46:02.163Z,67.62
2022-09-10T21:48:32.466Z,67.49
2022-09-10T21:51:04.263Z,67.98
2022-09-10T21:53:31.510Z,68.06
2022-09-10T21:56:00.012Z,68.26
2022-09-10T21:58:28.445Z,68.42
2022-09-10T22:00:55.756Z,68.25
2022-09-10T22:03:22.255Z,68.28
2022-09-10T22:05:48.715Z,68.26
2022-09-10T22:08:15.305Z,68.48
2022-09-10T22:10:41.886Z,68.29
2022-09-10T22:13:08.775Z,68.29
2022-09-10T22:15:39.509Z,68.39
2022-09-10T22:18:06.473Z,68.32
2022-09-10T22:20:33.252Z,68.27
2022-09-10T22:22:59.720Z,68.11
2022-09-10T22:25:26.355Z,68.10
2022-09-10T22:27:52.875Z,68.19
2022-09-10T22:30:19.459Z,68.20
2022-09-10T22:32:45.926Z,67.95
2022-09-10T22:35:12.500Z,68.15
2022-09-10T22:37:38.950Z,68.07
2022-09-10T22:40:05.758Z,67.91
2022-09-10T22:42:32.472Z,67.86
2022-09-10T22:44:58.956Z,68.00
2022-09-10T22:47:25.560Z,67.90
2022-09-10T22:49:52.072Z,67.92
2022-09-10T22:52:18.532Z,68.04
2022-09-10T22:54:45.075Z,68.08
2022-09-10T22:57:11.603Z,68.08
2022-09-10T22:59:38.051Z,67.93
2022-09-10T23:02:04.886Z,68.07
2022-09-10T23:04:31.417Z,68.00
2022-09-10T23:06:57.994Z,67.90
2022-09-10T23:09:24.538Z,67.79
2022-09-10T23:11:51.038Z,67.95
2022-09-10T23:14:19.416Z,67.93
2022-09-10T23:16:47.982Z,67.78
2022-09-10T23:19:17.211Z,67.72
2022-09-10T23:21:45.985Z,67.50
2022-09-10T23:24:15.187Z,67.44
2022-09-10T23:26:42.301Z,67.52
2022-09-10T23:29:09.592Z,67.38
2022-09-10T23:31:38.141Z,67.66
2022-09-10T23:34:23.441Z,67.49
2022-09-10T23:36:50.503Z,67.90
2022-09-10T23:39:19.652Z,68.07
2022-09-10T23:41:47.348Z,68.29
2022-09-10T23:44:13.861Z,68.46
2022-09-10T23:46:41.085Z,68.30
2022-09-10T23:49:07.682Z,68.58
2022-09-10T23:51:34.643Z,68.30
2022-09-10T23:54:01.232Z,68.36
2022-09-10T23:56:27.689Z,68.35
2022-09-10T23:58:55.421Z,68.19
